Time,TemperatureF,DewpointF,PressureIn,WindDirection,WindDirectionDegrees,WindSpeedMPH,WindSpeedGustMPH,Humidity,HourlyPrecipIn,Conditions,Clouds,dailyrainin,SolarRadiationWatts/m^2,SoftwareType,DateUTC
2013-04-07 00:01:00,28.0,14.0,-100.00,NE,43,0.0,2.0,56,0.00,,,0.00,0.000000,,2013-04-07 04:01:00,
2013-04-07 00:32:00,28.0,14.0,-100.00,NE,43,0.0,2.0,56,0.00,,,0.00,0.000000,,2013-04-07 04:32:00,
2013-04-07 00:43:00,28.0,14.0,-100.00,NE,43,0.0,2.0,56,0.00,,,0.00,0.000000,,2013-04-07 04:43:00,
2013-04-07 00:53:00,28.0,14.0,-100.00,NE,43,0.0,2.0,56,0.00,,,0.00,0.000000,,2013-04-07 04:53:00,
2013-04-07 01:01:00,31.0,15.0,-100.00,NNE,15,0.0,3.0,52,0.00,,,0.00,0.000000,,2013-04-07 05:01:00,
2013-04-07 01:23:00,31.0,15.0,-100.00,NNE,15,0.0,3.0,52,0.00,,,0.00,0.000000,,2013-04-07 05:23:00,
2013-04-07 01:34:00,31.0,15.0,-100.00,NNE,15,0.0,3.0,52,0.00,,,0.00,0.000000,,2013-04-07 05:34:00,
2013-04-07 01:43:00,31.0,15.0,-100.00,NNE,15,0.0,3.0,52,0.00,,,0.00,0.000000,,2013-04-07 05:43:00,
2013-04-07 01:53:00,31.0,15.0,-100.00,NNE,15,0.0,3.0,52,0.00,,,0.00,0.000000,,2013-04-07 05:53:00,
2013-04-07 02:01:00,30.0,17.0,-100.00,NNE,26,0.0,3.0,58,0.00,,,0.00,0.000000,,2013-04-07 06:01:00,
2013-04-07 02:33:00,30.0,17.0,-100.00,NNE,26,0.0,3.0,58,0.00,,,0.00,0.000000,,2013-04-07 06:33:00,
2013-04-07 02:43:00,30.0,17.0,-100.00,NNE,26,0.0,3.0,58,0.00,,,0.00,0.000000,,2013-04-07 06:43:00,
2013-04-07 02:53:00,30.0,17.0,-100.00,NNE,26,0.0,3.0,58,0.00,,,0.00,0.000000,,2013-04-07 06:53:00,
2013-04-07 03:01:00,33.0,19.0,-100.00,North,1,1.0,7.0,55,0.00,,,0.00,0.000000,,2013-04-07 07:01:00,
2013-04-07 03:33:00,33.0,19.0,-100.00,North,1,1.0,7.0,55,0.00,,,0.00,0.000000,,2013-04-07 07:33:00,
2013-04-07 03:42:00,33.0,19.0,-100.00,North,1,1.0,7.0,55,0.00,,,0.00,0.000000,,2013-04-07 07:42:00,
2013-04-07 03:52:00,33.0,19.0,-100.00,North,1,1.0,7.0,55,0.00,,,0.00,0.000000,,2013-04-07 07:52:00,
2013-04-07 04:01:00,37.0,17.0,-100.00,SE,145,1.0,5.0,43,0.00,,,0.00,0.000000,,2013-04-07 08:01:00,
2013-04-07 04:33:00,37.0,17.0,-100.00,SE,145,1.0,5.0,43,0.00,,,0.00,0.000000,,2013-04-07 08:33:00,
2013-04-07 04:43:00,37.0,17.0,-100.00,SE,145,1.0,5.0,43,0.00,,,0.00,0.000000,,2013-04-07 08:43:00,
2013-04-07 04:53:00,37.0,17.0,-100.00,SE,145,1.0,5.0,43,0.00,,,0.00,0.000000,,2013-04-07 08:53:00,
2013-04-07 05:01:00,39.0,25.0,-100.00,ESE,117,1.0,9.0,56,0.01,,,-99.99,0.000000,,2013-04-07 09:01:00,
2013-04-07 05:23:00,39.0,25.0,-100.00,ESE,117,1.0,9.0,56,0.01,,,-99.99,0.000000,,2013-04-07 09:23:00,
2013-04-07 05:34:00,39.0,25.0,-100.00,ESE,117,1.0,9.0,56,0.01,,,-99.99,0.000000,,2013-04-07 09:34:00,
2013-04-07 05:45:00,39.0,25.0,-100.00,ESE,117,1.0,9.0,56,0.01,,,-99.99,0.000000,,2013-04-07 09:45:00,
2013-04-07 05:54:00,39.0,25.0,-100.00,ESE,117,1.0,9.0,56,0.01,,,-99.99,0.000000,,2013-04-07 09:54:00,
2013-04-07 06:01:00,39.0,25.0,-100.00,SE,128,1.0,8.0,57,0.01,,,0.02,0.000000,,2013-04-07 10:01:00,
2013-04-07 06:34:00,39.0,25.0,-100.00,SE,128,1.0,8.0,57,0.01,,,0.02,0.000000,,2013-04-07 10:34:00,
2013-04-07 06:43:00,39.0,25.0,-100.00,SE,128,1.0,8.0,57,0.01,,,0.02,0.000000,,2013-04-07 10:43:00,
2013-04-07 06:54:00,39.0,25.0,-100.00,SE,128,1.0,8.0,57,0.01,,,0.02,0.000000,,2013-04-07 10:54:00,
2013-04-07 07:01:00,42.0,23.0,-100.00,SSE,151,2.0,14.0,47,0.00,,,0.02,4.000000,,2013-04-07 11:01:00,
2013-04-07 07:33:00,42.0,23.0,-100.00,SSE,151,2.0,14.0,47,0.00,,,0.02,4.000000,,2013-04-07 11:33:00,
2013-04-07 07:43:00,42.0,23.0,-100.00,SSE,151,2.0,14.0,47,0.00,,,0.02,4.000000,,2013-04-07 11:43:00,
2013-04-07 07:53:00,42.0,23.0,-100.00,SSE,151,2.0,14.0,47,0.00,,,0.02,4.000000,,2013-04-07 11:53:00,
2013-04-07 08:01:00,44.0,28.0,-100.00,SW,217,1.0,10.0,52,0.00,,,0.02,34.000000,,2013-04-07 12:01:00,
2013-04-07 08:23:00,44.0,28.0,-100.00,SW,217,1.0,10.0,52,0.00,,,0.02,34.000000,,2013-04-07 12:23:00,
2013-04-07 08:35:00,44.0,28.0,-100.00,SW,217,1.0,10.0,52,0.00,,,0.02,34.000000,,2013-04-07 12:35:00,
2013-04-07 08:43:00,44.0,28.0,-100.00,SW,217,1.0,10.0,52,0.00,,,0.02,34.000000,,2013-04-07 12:43:00,
2013-04-07 08:54:00,44.0,28.0,-100.00,SW,217,1.0,10.0,52,0.00,,,0.02,34.000000,,2013-04-07 12:54:00,
2013-04-07 09:01:00,47.0,29.0,-100.00,South,174,2.0,11.0,49,0.00,,,0.02,117.000000,,2013-04-07 13:01:00,
2013-04-07 09:23:00,47.0,29.0,-100.00,South,174,2.0,11.0,49,0.00,,,0.02,117.000000,,2013-04-07 13:23:00,
2013-04-07 09:33:00,47.0,29.0,-100.00,South,174,2.0,11.0,49,0.00,,,0.02,117.000000,,2013-04-07 13:33:00,
2013-04-07 09:43:00,47.0,29.0,-100.00,South,174,2.0,11.0,49,0.00,,,0.02,117.000000,,2013-04-07 13:43:00,
2013-04-07 09:53:00,47.0,29.0,-100.00,South,174,2.0,11.0,49,0.00,,,0.02,117.000000,,2013-04-07 13:53:00,
2013-04-07 10:01:00,51.0,29.0,-100.00,SSW,202,2.0,12.0,42,0.00,,,0.02,233.000000,,2013-04-07 14:01:00,
2013-04-07 10:33:00,51.0,29.0,-100.00,SSW,202,2.0,12.0,42,0.00,,,0.02,233.000000,,2013-04-07 14:33:00,
2013-04-07 10:44:00,51.0,29.0,-100.00,SSW,202,2.0,12.0,42,0.00,,,0.02,233.000000,,2013-04-07 14:44:00,
2013-04-07 10:55:00,51.0,29.0,-100.00,SSW,202,2.0,12.0,42,0.00,,,0.02,233.000000,,2013-04-07 14:55:00,
2013-04-07 12:01:00,64.0,29.0,-100.00,SSW,213,4.0,20.0,27,-99.99,,,0.02,721.000000,,2013-04-07 16:01:00,
2013-04-07 12:34:00,64.0,29.0,-100.00,SSW,213,4.0,20.0,27,-99.99,,,0.02,721.000000,,2013-04-07 16:34:00,
2013-04-07 12:44:00,64.0,29.0,-100.00,SSW,213,4.0,20.0,27,-99.99,,,0.02,721.000000,,2013-04-07 16:44:00,
2013-04-07 12:54:00,64.0,29.0,-100.00,SSW,213,4.0,20.0,27,-99.99,,,0.02,721.000000,,2013-04-07 16:54:00,
2013-04-07 13:01:00,61.0,29.0,-100.00,SW,233,4.0,20.0,29,0.00,,,0.02,484.000000,,2013-04-07 17:01:00,
2013-04-07 13:24:00,61.0,29.0,-100.00,SW,233,4.0,20.0,29,0.00,,,0.02,484.000000,,2013-04-07 17:24:00,
2013-04-07 13:34:00,61.0,29.0,-100.00,SW,233,4.0,20.0,29,0.00,,,0.02,484.000000,,2013-04-07 17:34:00,
2013-04-07 13:43:00,61.0,29.0,-100.00,SW,233,4.0,20.0,29,0.00,,,0.02,484.000000,,2013-04-07 17:43:00,
2013-04-07 13:54:00,61.0,29.0,-100.00,SW,233,4.0,20.0,29,0.00,,,0.02,484.000000,,2013-04-07 17:54:00,
2013-04-07 14:01:00,55.0,38.0,-100.00,SSW,212,4.0,23.0,53,0.00,,,0.02,133.000000,,2013-04-07 18:01:00,
2013-04-07 14:33:00,55.0,38.0,-100.00,SSW,212,4.0,23.0,53,0.00,,,0.02,133.000000,,2013-04-07 18:33:00,
2013-04-07 14:44:00,55.0,38.0,-100.00,SSW,212,4.0,23.0,53,0.00,,,0.02,133.000000,,2013-04-07 18:44:00,
2013-04-07 14:53:00,55.0,38.0,-100.00,SSW,212,4.0,23.0,53,0.00,,,0.02,133.000000,,2013-04-07 18:53:00,
2013-04-07 15:01:00,59.0,37.0,-100.00,SSW,196,5.0,17.0,43,0.00,,,0.02,305.000000,,2013-04-07 19:01:00,
2013-04-07 15:23:00,59.0,37.0,-100.00,SSW,196,5.0,17.0,43,0.00,,,0.02,305.000000,,2013-04-07 19:23:00,
2013-04-07 15:33:00,59.0,37.0,-100.00,SSW,196,5.0,17.0,43,0.00,,,0.02,305.000000,,2013-04-07 19:33:00,
2013-04-07 15:43:00,59.0,37.0,-100.00,SSW,196,5.0,17.0,43,0.00,,,0.02,305.000000,,2013-04-07 19:43:00,
2013-04-07 15:55:00,59.0,37.0,-100.00,SSW,196,5.0,17.0,43,0.00,,,0.02,305.000000,,2013-04-07 19:55:00,
2013-04-07 16:01:00,63.0,34.0,-100.00,SSW,206,6.0,19.0,34,0.00,,,0.02,588.000000,,2013-04-07 20:01:00,
2013-04-07 16:33:00,63.0,34.0,-100.00,SSW,206,6.0,19.0,34,0.00,,,0.02,588.000000,,2013-04-07 20:33:00,
2013-04-07 16:44:00,63.0,34.0,-100.00,SSW,206,6.0,19.0,34,0.00,,,0.02,588.000000,,2013-04-07 20:44:00,
2013-04-07 16:55:00,63.0,34.0,-100.00,SSW,206,6.0,19.0,34,0.00,,,0.02,588.000000,,2013-04-07 20:55:00,
2013-04-07 17:01:00,60.0,32.0,-100.00,SSW,200,5.0,18.0,34,0.00,,,0.02,127.000000,,2013-04-07 21:01:00,
2013-04-07 17:23:00,60.0,32.0,-100.00,SSW,200,5.0,18.0,34,0.00,,,0.02,127.000000,,2013-04-07 21:23:00,
2013-04-07 17:35:00,60.0,32.0,-100.00,SSW,200,5.0,18.0,34,0.00,,,0.02,127.000000,,2013-04-07 21:35:00,
2013-04-07 17:45:00,60.0,32.0,-100.00,SSW,200,5.0,18.0,34,0.00,,,0.02,127.000000,,2013-04-07 21:45:00,
2013-04-07 17:55:00,60.0,32.0,-100.00,SSW,200,5.0,18.0,34,0.00,,,0.02,127.000000,,2013-04-07 21:55:00,
2013-04-07 18:01:00,61.0,32.0,-100.00,SW,224,4.0,16.0,33,0.00,,,0.02,28.000000,,2013-04-07 22:01:00,
2013-04-07 18:24:00,61.0,32.0,-100.00,SW,224,4.0,16.0,33,0.00,,,0.02,28.000000,,2013-04-07 22:24:00,
2013-04-07 18:34:00,61.0,32.0,-100.00,SW,224,4.0,16.0,33,0.00,,,0.02,28.000000,,2013-04-07 22:34:00,
2013-04-07 18:44:00,61.0,32.0,-100.00,SW,224,4.0,16.0,33,0.00,,,0.02,28.000000,,2013-04-07 22:44:00,
2013-04-07 18:54:00,61.0,32.0,-100.00,SW,224,4.0,16.0,33,0.00,,,0.02,28.000000,,2013-04-07 22:54:00,
2013-04-07 19:01:00,61.0,38.0,-100.00,WSW,250,5.0,20.0,43,0.00,,,0.02,27.000000,,2013-04-07 23:01:00,
2013-04-07 19:33:00,61.0,38.0,-100.00,WSW,250,5.0,20.0,43,0.00,,,0.02,27.000000,,2013-04-07 23:33:00,
2013-04-07 19:43:00,61.0,38.0,-100.00,WSW,250,5.0,20.0,43,0.00,,,0.02,27.000000,,2013-04-07 23:43:00,
2013-04-07 19:53:00,61.0,38.0,-100.00,WSW,250,5.0,20.0,43,0.00,,,0.02,27.000000,,2013-04-07 23:53:00,
2013-04-07 20:01:00,56.0,40.0,-100.00,West,261,5.0,19.0,55,0.00,,,0.02,10.000000,,2013-04-08 00:01:00,
2013-04-07 20:23:00,56.0,40.0,-100.00,West,261,5.0,19.0,55,0.00,,,0.02,10.000000,,2013-04-08 00:23:00,
2013-04-07 20:33:00,56.0,40.0,-100.00,West,261,5.0,19.0,55,0.00,,,0.02,10.000000,,2013-04-08 00:33:00,
2013-04-07 20:43:00,56.0,40.0,-100.00,West,261,5.0,19.0,55,0.00,,,0.02,10.000000,,2013-04-08 00:43:00,
2013-04-07 20:53:00,56.0,40.0,-100.00,West,261,5.0,19.0,55,0.00,,,0.02,10.000000,,2013-04-08 00:53:00,
2013-04-07 21:01:00,52.0,34.0,-100.00,WSW,258,3.0,12.0,50,0.00,,,0.02,0.000000,,2013-04-08 01:01:00,
2013-04-07 21:23:00,52.0,34.0,-100.00,WSW,258,3.0,12.0,50,0.00,,,0.02,0.000000,,2013-04-08 01:23:00,
2013-04-07 21:34:00,52.0,34.0,-100.00,WSW,258,3.0,12.0,50,0.00,,,0.02,0.000000,,2013-04-08 01:34:00,
2013-04-07 21:45:00,52.0,34.0,-100.00,WSW,258,3.0,12.0,50,0.00,,,0.02,0.000000,,2013-04-08 01:45:00,
2013-04-07 21:55:00,52.0,34.0,-100.00,WSW,258,3.0,12.0,50,0.00,,,0.02,0.000000,,2013-04-08 01:55:00,
2013-04-07 22:01:00,46.0,33.0,-100.00,WSW,247,2.0,12.0,61,0.00,,,0.02,0.000000,,2013-04-08 02:01:00,
2013-04-07 22:33:00,46.0,33.0,-100.00,WSW,247,2.0,12.0,61,0.00,,,0.02,0.000000,,2013-04-08 02:33:00,
2013-04-07 22:49:00,46.0,33.0,-100.00,WSW,247,2.0,12.0,61,0.00,,,0.02,0.000000,,2013-04-08 02:49:00,
2013-04-07 22:55:00,46.0,33.0,-100.00,WSW,247,2.0,12.0,61,0.00,,,0.02,0.000000,,2013-04-08 02:55:00,
2013-04-07 23:01:00,45.0,32.0,-100.00,WSW,251,3.0,11.0,61,0.00,,,0.02,0.000000,,2013-04-08 03:01:00,
2013-04-07 23:37:00,45.0,32.0,-100.00,WSW,251,3.0,11.0,61,0.00,,,0.02,0.000000,,2013-04-08 03:37:00,
2013-04-07 23:48:00,45.0,32.0,-100.00,WSW,251,3.0,11.0,61,0.00,,,0.02,0.000000,,2013-04-08 03:48:00,
2013-04-07 23:58:00,45.0,32.0,-100.00,WSW,251,3.0,11.0,61,0.00,,,0.02,0.000000,,2013-04-08 03:58:00,